createdAt,value
2018-05-25T00:00:44.671Z,71.50
2018-05-25T00:01:44.118Z,72.00
2018-05-25T00:02:44.456Z,71.40
2018-05-25T00:03:43.955Z,70.60
2018-05-25T00:04:44.596Z,64.20
2018-05-25T00:05:44.030Z,65.90
2018-05-25T00:06:44.627Z,62.50
2018-05-25T00:07:44.105Z,68.80
2018-05-25T00:08:44.683Z,63.30
2018-05-25T00:09:44.091Z,59.00
2018-05-25T00:10:44.363Z,65.60
2018-05-25T00:12:27.724Z,68.80
2018-05-25T00:13:28.462Z,58.30
2018-05-25T00:14:28.344Z,56.40
2018-05-25T00:15:28.127Z,57.40
2018-05-25T00:16:28.195Z,59.10
2018-05-25T00:17:27.872Z,57.80
2018-05-25T00:18:28.372Z,57.30
2018-05-25T00:19:28.145Z,61.80
2018-05-25T00:20:49.210Z,58.00
2018-05-25T00:22:33.438Z,55.70
2018-05-25T00:23:33.048Z,52.70
2018-05-25T00:24:55.135Z,59.90
2018-05-25T00:25:55.917Z,58.40
2018-05-25T00:26:55.719Z,47.40
2018-05-25T00:27:55.672Z,54.80
2018-05-25T00:28:55.305Z,56.40
2018-05-25T00:29:55.153Z,54.20
2018-05-25T00:30:55.636Z,59.80
2018-05-25T00:31:54.978Z,58.40
2018-05-25T00:32:55.651Z,59.90
2018-05-25T00:33:54.988Z,61.70
2018-05-25T00:34:55.565Z,60.10
2018-05-25T00:35:55.211Z,61.40
2018-05-25T00:37:16.908Z,59.90
2018-05-25T00:38:17.379Z,59.80
2018-05-25T00:39:18.026Z,65.20
2018-05-25T00:40:17.579Z,64.90
2018-05-25T00:41:16.998Z,63.60
2018-05-25T00:42:17.654Z,63.10
2018-05-25T00:43:38.727Z,59.40
2018-05-25T00:44:39.156Z,64.70
2018-05-25T00:46:00.627Z,60.70
2018-05-25T00:47:01.178Z,57.60
2018-05-25T00:48:02.375Z,69.70
2018-05-25T00:49:00.802Z,65.10
2018-05-25T00:50:01.468Z,66.30
2018-05-25T00:51:01.108Z,63.60
2018-05-25T00:52:01.473Z,59.20
2018-05-25T00:53:00.900Z,58.00
2018-05-25T00:54:02.159Z,60.70
2018-05-25T00:55:01.178Z,65.70
2018-05-25T00:56:00.976Z,68.80
2018-05-25T00:57:01.905Z,61.60
2018-05-25T00:58:01.829Z,62.70
2018-05-25T00:59:22.893Z,69.30
2018-05-25T01:00:47.281Z,69.80
2018-05-25T01:01:46.712Z,70.20
2018-05-25T01:02:47.491Z,65.20
2018-05-25T01:03:47.360Z,65.90
2018-05-25T01:04:46.869Z,70.90
2018-05-25T01:05:46.393Z,66.00
2018-05-25T01:06:46.806Z,66.90
2018-05-25T01:07:46.106Z,67.80
2018-05-25T01:08:46.971Z,68.60
2018-05-25T01:09:46.216Z,66.40
2018-05-25T01:10:46.863Z,69.80
2018-05-25T01:11:46.544Z,70.70
2018-05-25T01:12:47.289Z,69.30
2018-05-25T01:13:46.523Z,66.60
2018-05-25T01:14:47.149Z,69.50
2018-05-25T01:15:46.640Z,71.00
2018-05-25T01:16:48.397Z,69.80
2018-05-25T01:17:47.304Z,67.60
2018-05-25T01:18:46.572Z,65.90
2018-05-25T01:19:47.043Z,68.80
2018-05-25T01:20:47.295Z,69.30
2018-05-25T01:21:46.759Z,69.30
2018-05-25T01:22:47.269Z,72.00
2018-05-25T01:23:47.718Z,69.40
2018-05-25T01:24:48.477Z,67.50
2018-05-25T01:25:47.114Z,70.80
2018-05-25T01:26:46.559Z,74.60
2018-05-25T01:27:47.305Z,73.60
2018-05-25T01:28:46.871Z,78.50
2018-05-25T01:29:46.366Z,77.20
2018-05-25T01:30:46.783Z,78.90
2018-05-25T01:32:08.096Z,74.50
2018-05-25T01:33:08.400Z,75.70
2018-05-25T01:34:08.994Z,75.00
2018-05-25T01:35:08.277Z,77.00
2018-05-25T01:36:08.940Z,76.80
2018-05-25T01:37:08.393Z,74.40
2018-05-25T01:38:08.753Z,79.30
2018-05-25T01:39:09.128Z,79.00
2018-05-25T01:40:30.025Z,78.20
2018-05-25T01:41:30.253Z,77.50
2018-05-25T01:42:31.044Z,79.50
2018-05-25T01:43:51.768Z,76.40
2018-05-25T01:44:52.121Z,76.60
2018-05-25T01:45:52.887Z,74.70
2018-05-25T01:46:52.629Z,74.30
2018-05-25T01:47:52.425Z,74.50
2018-05-25T01:49:13.318Z,71.10
2018-05-25T01:50:13.854Z,64.60
2018-05-25T01:51:13.076Z,67.10
2018-05-25T01:52:14.105Z,65.60
2018-05-25T01:53:36.023Z,64.00
2018-05-25T01:54:36.624Z,60.70
2018-05-25T01:56:21.500Z,58.50
2018-05-25T01:57:43.714Z,57.90
2018-05-25T01:58:43.428Z,53.40
2018-05-25T01:59:43.941Z,52.60
2018-05-25T02:00:43.292Z,52.60
2018-05-25T02:01:43.811Z,47.70
2018-05-25T02:02:43.418Z,48.50
2018-05-25T02:03:44.449Z,50.00
2018-05-25T02:04:44.571Z,52.10
2018-05-25T02:05:44.262Z,49.90
2018-05-25T02:06:43.846Z,52.20
2018-05-25T02:07:43.460Z,49.10
2018-05-25T02:08:44.334Z,52.40
2018-05-25T02:09:44.044Z,55.50
2018-05-25T02:10:43.776Z,51.20
2018-05-25T02:11:43.342Z,49.70
2018-05-25T02:12:44.101Z,49.00
2018-05-25T02:13:43.486Z,49.20
2018-05-25T02:14:43.969Z,48.70
2018-05-25T02:15:43.773Z,48.20
2018-05-25T02:16:43.675Z,53.20
2018-05-25T02:17:43.618Z,47.00
2018-05-25T02:18:43.555Z,49.40
2018-05-25T02:19:44.088Z,48.70
2018-05-25T02:20:43.713Z,51.50
2018-05-25T02:22:04.973Z,55.60
2018-05-25T02:23:05.903Z,56.20
2018-05-25T02:24:05.703Z,50.70
2018-05-25T02:25:05.607Z,57.20
2018-05-25T02:26:05.391Z,54.40
2018-05-25T02:27:04.907Z,53.60
2018-05-25T02:28:05.652Z,49.10
2018-05-25T02:29:04.987Z,48.80
2018-05-25T02:30:05.813Z,52.60
2018-05-25T02:31:05.491Z,49.80
2018-05-25T02:32:05.216Z,52.10
2018-05-25T02:33:05.643Z,55.00
2018-05-25T02:35:09.193Z,48.80
2018-05-25T02:36:31.013Z,51.40
2018-05-25T02:37:31.339Z,50.00
2018-05-25T02:39:14.950Z,53.70
2018-05-25T02:40:15.777Z,55.10
2018-05-25T02:41:15.583Z,54.30
2018-05-25T02:42:15.439Z,55.00
2018-05-25T02:43:15.110Z,53.40
2018-05-25T02:44:15.056Z,53.90
2018-05-25T02:45:15.592Z,57.80
2018-05-25T02:46:15.170Z,52.00
2018-05-25T02:47:37.979Z,53.80
2018-05-25T02:48:37.673Z,53.60
2018-05-25T02:49:37.137Z,58.30
2018-05-25T02:50:38.031Z,51.70
2018-05-25T02:51:38.140Z,54.80
2018-05-25T02:52:38.078Z,56.60
2018-05-25T02:53:37.565Z,52.80
2018-05-25T02:54:37.304Z,55.70
2018-05-25T02:55:59.843Z,55.30
2018-05-25T02:57:00.429Z,55.80
2018-05-25T02:58:01.287Z,50.00
2018-05-25T02:58:59.995Z,49.20
2018-05-25T03:00:00.086Z,48.10
2018-05-25T03:01:00.253Z,49.90
2018-05-25T03:02:00.779Z,43.90
2018-05-25T03:03:00.300Z,45.20
2018-05-25T03:03:59.942Z,45.40
2018-05-25T03:05:01.780Z,44.80
2018-05-25T03:06:21.750Z,42.00
2018-05-25T03:07:24.595Z,44.30
2018-05-25T03:08:22.590Z,43.80
2018-05-25T03:09:22.500Z,45.30
2018-05-25T03:10:22.500Z,47.40
2018-05-25T03:11:22.469Z,51.50
2018-05-25T03:12:22.445Z,45.00
2018-05-25T03:13:22.380Z,45.40
2018-05-25T03:14:23.447Z,44.80
2018-05-25T03:15:23.491Z,44.40
2018-05-25T03:16:22.268Z,43.10
2018-05-25T03:17:21.760Z,44.70
2018-05-25T03:18:22.617Z,45.90
2018-05-25T03:19:22.255Z,43.00
2018-05-25T03:20:22.053Z,46.40
2018-05-25T03:21:22.598Z,42.90
2018-05-25T03:22:22.067Z,42.50
2018-05-25T03:23:44.225Z,43.40
2018-05-25T03:24:45.267Z,52.10
2018-05-25T03:25:44.893Z,68.40
2018-05-25T03:26:44.897Z,41.10
2018-05-25T03:27:44.617Z,40.00
2018-05-25T03:28:44.251Z,38.40
2018-05-25T03:29:43.789Z,43.40
2018-05-25T03:30:44.752Z,38.10
2018-05-25T03:31:44.363Z,38.90
2018-05-25T03:32:44.420Z,38.40
2018-05-25T03:33:53.019Z,40.00
2018-05-25T03:34:44.589Z,38.10
2018-05-25T03:35:44.303Z,37.70
2018-05-25T03:37:05.368Z,37.10
2018-05-25T03:38:06.265Z,38.60
2018-05-25T03:39:06.412Z,35.50
2018-05-25T03:40:07.034Z,39.10
2018-05-25T03:41:05.906Z,39.10
2018-05-25T03:42:27.455Z,34.00
2018-05-25T03:43:28.358Z,33.90
2018-05-25T03:44:28.157Z,35.20
2018-05-25T03:45:27.623Z,36.00
2018-05-25T03:46:28.161Z,35.10
2018-05-25T03:47:28.307Z,37.20
2018-05-25T03:48:28.077Z,33.90
2018-05-25T03:49:29.359Z,35.50
2018-05-25T03:50:27.842Z,33.60
2018-05-25T03:51:27.656Z,32.90
2018-05-25T03:52:27.293Z,36.30
2018-05-25T03:53:28.150Z,32.30
2018-05-25T03:54:27.922Z,33.10
2018-05-25T03:55:50.739Z,31.00
2018-05-25T03:56:51.342Z,32.80
2018-05-25T03:57:51.038Z,35.20
2018-05-25T03:58:51.047Z,29.30
2018-05-25T03:59:52.326Z,30.10
2018-05-25T04:00:50.852Z,31.10
2018-05-25T04:01:51.637Z,32.40
2018-05-25T04:03:34.617Z,32.90
2018-05-25T04:04:35.802Z,30.70
2018-05-25T04:05:35.294Z,29.40
2018-05-25T04:06:56.239Z,34.30
2018-05-25T04:07:56.997Z,33.20
2018-05-25T04:08:56.509Z,29.70
2018-05-25T04:09:57.265Z,32.70
2018-05-25T04:10:56.802Z,34.20
2018-05-25T04:11:56.498Z,33.90
2018-05-25T04:12:56.906Z,32.60
2018-05-25T04:13:56.487Z,30.40
2018-05-25T04:14:56.143Z,31.20
2018-05-25T04:15:56.798Z,30.80
2018-05-25T04:16:56.648Z,30.80
2018-05-25T04:17:56.827Z,31.20
2018-05-25T04:18:57.231Z,28.90
2018-05-25T04:19:57.477Z,28.90
2018-05-25T04:20:56.200Z,26.70
2018-05-25T04:21:57.180Z,29.00
2018-05-25T04:22:57.253Z,26.50
2018-05-25T04:23:57.317Z,25.90
2018-05-25T04:24:57.088Z,26.00
2018-05-25T04:25:56.635Z,27.10
2018-05-25T04:27:18.655Z,27.70
2018-05-25T04:28:19.133Z,26.50
2018-05-25T04:29:20.390Z,24.30
2018-05-25T04:30:41.298Z,22.80
2018-05-25T04:31:40.933Z,21.80
2018-05-25T04:32:41.382Z,21.50
2018-05-25T04:33:41.252Z,23.30
2018-05-25T04:34:41.014Z,22.00
2018-05-25T04:36:03.263Z,20.10
2018-05-25T04:37:03.968Z,22.20
2018-05-25T04:38:03.501Z,22.60
2018-05-25T04:39:04.526Z,19.50
2018-05-25T04:40:04.066Z,18.20
2018-05-25T04:41:03.799Z,17.20
2018-05-25T04:42:03.797Z,16.50
2018-05-25T04:43:03.643Z,23.20
2018-05-25T04:44:04.182Z,17.00
2018-05-25T04:45:04.851Z,16.20
2018-05-25T04:46:25.128Z,16.30
2018-05-25T04:47:26.062Z,17.20
2018-05-25T04:48:25.813Z,15.30
2018-05-25T04:49:25.484Z,15.40
2018-05-25T04:50:25.251Z,16.00
2018-05-25T04:51:25.320Z,15.20
2018-05-25T04:52:26.358Z,13.80
2018-05-25T04:53:46.787Z,16.20
2018-05-25T04:54:48.177Z,13.50
2018-05-25T04:55:47.196Z,15.10
2018-05-25T04:56:47.045Z,13.80
2018-05-25T04:57:47.040Z,13.60
2018-05-25T04:58:46.991Z,14.10
2018-05-25T04:59:46.644Z,14.50
2018-05-25T05:00:47.216Z,15.40
2018-05-25T05:01:47.138Z,14.20
2018-05-25T05:02:46.828Z,15.40
2018-05-25T05:03:48.862Z,11.80
2018-05-25T05:04:47.707Z,12.50
2018-05-25T05:05:48.009Z,11.60
2018-05-25T05:07:24.961Z,15.50
2018-05-25T05:08:23.649Z,11.50
2018-05-25T05:09:24.309Z,11.00
2018-05-25T05:10:24.399Z,10.70
2018-05-25T05:11:24.340Z,13.00
2018-05-25T05:12:24.085Z,12.60
2018-05-25T05:13:23.790Z,12.10
2018-05-25T05:14:48.570Z,10.80
2018-05-25T05:15:48.116Z,14.20
2018-05-25T05:16:49.051Z,12.00
2018-05-25T05:17:48.885Z,10.80
2018-05-25T05:18:48.393Z,13.70
2018-05-25T05:19:48.308Z,15.60
2018-05-25T05:20:48.158Z,11.10
2018-05-25T05:22:31.132Z,9.40
2018-05-25T05:23:32.029Z,9.30
2018-05-25T05:24:32.452Z,10.60
2018-05-25T05:25:31.890Z,9.80
2018-05-25T05:26:31.676Z,12.00
2018-05-25T05:27:31.222Z,12.20
2018-05-25T05:28:33.373Z,12.00
2018-05-25T05:29:31.260Z,9.20
2018-05-25T05:30:32.316Z,12.80
2018-05-25T05:31:31.891Z,12.50
2018-05-25T05:32:31.784Z,9.80
2018-05-25T05:33:31.300Z,8.70
2018-05-25T05:34:32.718Z,10.20
2018-05-25T05:35:31.097Z,9.00
2018-05-25T05:36:31.639Z,12.50
2018-05-25T05:37:53.635Z,11.80
2018-05-25T05:38:54.728Z,10.50
2018-05-25T05:39:54.377Z,11.20
2018-05-25T05:40:54.190Z,9.50
2018-05-25T05:41:54.240Z,9.60
2018-05-25T05:42:54.100Z,8.60
2018-05-25T05:43:53.725Z,8.50
2018-05-25T05:44:53.504Z,9.60
2018-05-25T05:46:16.036Z,16.50
2018-05-25T05:47:37.096Z,12.50
2018-05-25T05:48:37.727Z,8.50
2018-05-25T05:49:37.488Z,9.80
2018-05-25T05:50:37.118Z,13.90
2018-05-25T05:52:22.348Z,13.30
2018-05-25T05:53:23.882Z,7.90
2018-05-25T05:54:22.723Z,8.40
2018-05-25T05:55:44.688Z,8.80
2018-05-25T05:56:45.250Z,13.40
2018-05-25T05:57:45.165Z,20.50
2018-05-25T05:58:44.923Z,10.70
2018-05-25T05:59:45.339Z,8.10
2018-05-25T06:01:06.857Z,10.10
2018-05-25T06:02:07.683Z,12.80
2018-05-25T06:03:07.589Z,12.10
2018-05-25T06:04:08.069Z,15.00
2018-05-25T06:05:07.055Z,12.60
2018-05-25T06:06:08.273Z,13.10
2018-05-25T06:07:07.025Z,8.30
2018-05-25T06:08:06.751Z,11.10
2018-05-25T06:09:07.481Z,10.50
2018-05-25T06:10:07.403Z,10.60
2018-05-25T06:11:06.875Z,9.70
2018-05-25T06:12:07.764Z,9.20
2018-05-25T06:13:07.449Z,10.80
2018-05-25T06:14:07.897Z,10.70
2018-05-25T06:15:07.899Z,11.20
2018-05-25T06:16:07.192Z,9.30
2018-05-25T06:17:07.081Z,7.50
2018-05-25T06:18:28.029Z,8.90
2018-05-25T06:19:28.453Z,6.20
2018-05-25T06:21:11.942Z,10.30
2018-05-25T06:22:11.900Z,10.40
2018-05-25T06:23:11.703Z,11.10
2018-05-25T06:24:12.321Z,7.90
2018-05-25T06:25:11.986Z,8.50
2018-05-25T06:26:11.725Z,9.00
2018-05-25T06:27:11.713Z,7.20
2018-05-25T06:28:35.170Z,9.40
2018-05-25T06:29:35.717Z,14.40
2018-05-25T06:30:35.145Z,8.40
2018-05-25T06:31:35.866Z,7.70
2018-05-25T06:32:35.733Z,7.60
2018-05-25T06:33:36.456Z,6.70
2018-05-25T06:34:58.483Z,11.10
2018-05-25T06:35:58.017Z,6.50
2018-05-25T06:36:57.774Z,7.90
2018-05-25T06:38:41.545Z,12.10
2018-05-25T06:39:42.391Z,8.10
2018-05-25T06:41:03.514Z,10.30
2018-05-25T06:42:04.108Z,10.90
2018-05-25T06:43:04.079Z,8.90
2018-05-25T06:44:04.180Z,10.40
2018-05-25T06:45:05.068Z,6.40
2018-05-25T06:46:04.059Z,6.30
2018-05-25T06:47:03.673Z,7.30
2018-05-25T06:48:03.331Z,6.40
2018-05-25T06:49:25.125Z,13.50
2018-05-25T06:50:26.098Z,10.60
2018-05-25T06:51:25.717Z,10.70
2018-05-25T06:52:49.376Z,8.80
2018-05-25T06:53:50.097Z,9.20
2018-05-25T06:54:50.056Z,8.50
2018-05-25T06:55:49.820Z,15.20
2018-05-25T06:56:49.776Z,6.30
2018-05-25T06:57:49.867Z,8.10
2018-05-25T06:58:49.436Z,12.00
2018-05-25T06:59:49.932Z,9.90
2018-05-25T07:00:49.799Z,7.20
2018-05-25T07:01:49.396Z,9.00
2018-05-25T07:02:50.207Z,10.00
2018-05-25T07:03:50.029Z,7.40
2018-05-25T07:04:49.741Z,7.80
2018-05-25T07:05:49.326Z,10.90
2018-05-25T07:06:50.279Z,9.40
2018-05-25T07:07:50.035Z,9.90
2018-05-25T07:08:50.010Z,8.60
2018-05-25T07:09:49.851Z,8.50
2018-05-25T07:10:49.922Z,7.40
2018-05-25T07:11:49.663Z,8.30
2018-05-25T07:12:49.664Z,7.90
2018-05-25T07:14:11.038Z,10.90
2018-05-25T07:15:11.524Z,9.40
2018-05-25T07:16:33.014Z,8.70
2018-05-25T07:17:34.065Z,10.10
2018-05-25T07:18:33.975Z,8.60
2018-05-25T07:19:33.842Z,8.80
2018-05-25T07:20:33.676Z,9.00
2018-05-25T07:21:33.478Z,8.40
2018-05-25T07:22:33.517Z,10.00
2018-05-25T07:23:33.590Z,9.70
2018-05-25T07:24:33.803Z,7.90
2018-05-25T07:25:33.775Z,6.60
2018-05-25T07:26:33.646Z,8.80
2018-05-25T07:27:34.200Z,10.00
2018-05-25T07:28:33.729Z,7.80
2018-05-25T07:29:33.735Z,12.10
2018-05-25T07:30:33.357Z,10.60
2018-05-25T07:31:32.965Z,6.70
2018-05-25T07:32:34.028Z,11.40
2018-05-25T07:33:33.897Z,8.70
2018-05-25T07:34:33.773Z,9.90
2018-05-25T07:35:33.278Z,9.70
2018-05-25T07:36:33.652Z,7.40
2018-05-25T07:37:33.519Z,9.20
2018-05-25T07:38:33.590Z,8.90
2018-05-25T07:39:33.637Z,8.80
2018-05-25T07:40:33.404Z,7.50
2018-05-25T07:41:56.239Z,9.70
2018-05-25T07:42:56.939Z,9.70
2018-05-25T07:43:57.268Z,12.80
2018-05-25T07:44:56.753Z,7.00
2018-05-25T07:45:56.817Z,12.00
2018-05-25T07:46:57.712Z,10.00
2018-05-25T07:48:17.493Z,9.00
2018-05-25T07:49:17.998Z,9.70
2018-05-25T07:50:17.974Z,9.10
2018-05-25T07:51:18.810Z,6.70
2018-05-25T07:52:18.564Z,9.30
2018-05-25T07:53:18.325Z,9.00
2018-05-25T07:54:19.052Z,11.60
2018-05-25T07:55:18.294Z,13.10
2018-05-25T07:56:18.385Z,8.20
2018-05-25T07:57:18.465Z,11.90
2018-05-25T07:58:17.958Z,8.30
2018-05-25T07:59:17.821Z,10.20
2018-05-25T08:00:19.567Z,7.70
2018-05-25T08:01:19.134Z,6.70
2018-05-25T08:02:18.562Z,10.10
2018-05-25T08:03:18.534Z,11.90
2018-05-25T08:04:18.506Z,11.90
2018-05-25T08:05:18.053Z,8.80
2018-05-25T08:06:17.971Z,10.50
2018-05-25T08:07:17.949Z,9.20
2018-05-25T08:08:18.275Z,7.70
2018-05-25T08:09:18.500Z,8.70
2018-05-25T08:10:18.153Z,8.40
2018-05-25T08:11:18.173Z,7.30
2018-05-25T08:12:17.715Z,8.70
2018-05-25T08:13:18.977Z,6.50
2018-05-25T08:14:18.530Z,8.50
2018-05-25T08:15:18.252Z,10.20
2018-05-25T08:16:19.111Z,13.10
2018-05-25T08:17:17.850Z,8.20
2018-05-25T08:18:18.405Z,7.00
2018-05-25T08:19:39.535Z,6.80
2018-05-25T08:20:40.148Z,10.90
2018-05-25T08:21:39.847Z,9.40
2018-05-25T08:22:39.839Z,7.60
2018-05-25T08:23:40.530Z,13.80
2018-05-25T08:25:24.077Z,12.10
2018-05-25T08:26:48.315Z,9.90
2018-05-25T08:27:47.951Z,8.60
2018-05-25T08:28:48.028Z,7.00
2018-05-25T08:29:47.518Z,8.40
2018-05-25T08:30:48.097Z,8.40
2018-05-25T08:31:48.687Z,8.00
2018-05-25T08:32:48.521Z,8.50
2018-05-25T08:33:48.436Z,8.90
2018-05-25T08:34:48.193Z,7.10
2018-05-25T08:35:48.169Z,8.30
2018-05-25T08:36:47.653Z,6.90
2018-05-25T08:37:48.551Z,7.00
2018-05-25T08:38:48.175Z,9.90
2018-05-25T08:39:47.931Z,12.30
2018-05-25T08:40:49.983Z,12.20
2018-05-25T08:41:47.875Z,8.50
2018-05-25T08:43:08.609Z,8.40
2018-05-25T08:44:09.705Z,10.00
2018-05-25T08:45:09.376Z,11.20
2018-05-25T08:46:08.973Z,11.60
2018-05-25T08:47:08.699Z,8.60
2018-05-25T08:48:09.332Z,7.00
2018-05-25T08:49:09.001Z,8.30
2018-05-25T08:50:08.776Z,10.90
2018-05-25T08:51:31.281Z,9.10
2018-05-25T08:52:53.682Z,10.70
2018-05-25T08:53:54.371Z,10.60
2018-05-25T08:54:54.343Z,12.50
2018-05-25T08:55:53.902Z,8.60
2018-05-25T08:56:53.877Z,10.20
2018-05-25T08:58:17.180Z,10.70
2018-05-25T08:59:39.719Z,12.60
2018-05-25T09:00:39.511Z,8.40
2018-05-25T09:01:40.485Z,9.40
2018-05-25T09:02:41.453Z,12.40
2018-05-25T09:03:39.393Z,9.80
2018-05-25T09:04:40.097Z,9.70
2018-05-25T09:05:39.672Z,8.00
2018-05-25T09:06:39.482Z,12.10
2018-05-25T09:07:39.280Z,9.70
2018-05-25T09:08:40.077Z,10.80
2018-05-25T09:09:39.803Z,11.50
2018-05-25T09:10:39.341Z,9.30
2018-05-25T09:12:23.791Z,9.50
2018-05-25T09:13:25.309Z,9.30
2018-05-25T09:14:24.487Z,9.20
2018-05-25T09:15:24.323Z,10.80
2018-05-25T09:16:24.335Z,10.50
2018-05-25T09:17:24.475Z,10.40
2018-05-25T09:18:24.104Z,12.30
2018-05-25T09:19:47.259Z,10.60
2018-05-25T09:20:47.766Z,9.30
2018-05-25T09:21:47.578Z,13.70
2018-05-25T09:22:47.139Z,13.80
2018-05-25T09:23:47.972Z,10.50
2018-05-25T09:24:47.757Z,10.70
2018-05-25T09:25:47.331Z,11.40
2018-05-25T09:26:47.090Z,9.10
2018-05-25T09:27:47.833Z,9.90
2018-05-25T09:28:47.533Z,10.70
2018-05-25T09:30:08.657Z,10.20
2018-05-25T09:31:09.289Z,9.70
2018-05-25T09:32:09.209Z,8.10
2018-05-25T09:33:09.095Z,8.80
2018-05-25T09:34:08.961Z,8.80
2018-05-25T09:35:09.922Z,8.40
2018-05-25T09:36:09.968Z,11.00
2018-05-25T09:37:09.853Z,10.50
2018-05-25T09:38:31.822Z,11.20
2018-05-25T09:39:32.614Z,9.00
2018-05-25T09:40:32.230Z,11.80
2018-05-25T09:41:32.042Z,8.90
2018-05-25T09:42:32.019Z,7.90
2018-05-25T09:43:32.534Z,9.10
2018-05-25T09:44:32.325Z,10.60
2018-05-25T09:45:32.129Z,12.90
2018-05-25T09:46:31.826Z,12.70
2018-05-25T09:47:31.880Z,11.30
2018-05-25T09:48:31.884Z,8.60
2018-05-25T09:49:32.621Z,9.80
2018-05-25T09:51:15.249Z,10.10
2018-05-25T09:52:15.663Z,9.60
2018-05-25T09:53:15.750Z,10.30
2018-05-25T09:54:15.406Z,9.40
2018-05-25T09:55:15.959Z,9.90
2018-05-25T09:56:37.292Z,14.30
2018-05-25T09:57:37.904Z,8.80
2018-05-25T09:58:37.553Z,11.80
2018-05-25T09:59:37.303Z,14.90
2018-05-25T10:00:38.171Z,10.80
2018-05-25T10:01:59.449Z,8.50
2018-05-25T10:03:23.973Z,15.00
2018-05-25T10:04:24.746Z,14.40
2018-05-25T10:05:25.468Z,8.80
2018-05-25T10:06:46.366Z,18.90
2018-05-25T10:07:46.059Z,14.10
2018-05-25T10:08:46.383Z,11.10
2018-05-25T10:09:46.384Z,13.30
2018-05-25T10:10:46.944Z,9.50
2018-05-25T10:11:46.705Z,15.10
2018-05-25T10:12:46.197Z,9.80
2018-05-25T10:13:45.797Z,12.70
2018-05-25T10:14:46.906Z,10.00
2018-05-25T10:15:46.541Z,10.00
2018-05-25T10:16:46.444Z,10.20
2018-05-25T10:18:07.500Z,8.20
2018-05-25T10:19:08.195Z,8.20
2018-05-25T10:20:08.196Z,10.20
2018-05-25T10:21:29.749Z,10.40
2018-05-25T10:22:53.872Z,8.00
2018-05-25T10:23:55.793Z,9.70
2018-05-25T10:24:54.750Z,10.60
2018-05-25T10:25:54.335Z,11.10
2018-05-25T10:26:53.955Z,10.20
2018-05-25T10:27:54.909Z,11.00
2018-05-25T10:28:54.879Z,11.60
2018-05-25T10:30:17.141Z,10.10
2018-05-25T10:31:17.219Z,10.20
2018-05-25T10:32:17.086Z,9.10
2018-05-25T10:33:16.725Z,11.80
2018-05-25T10:34:16.303Z,10.10
2018-05-25T10:35:19.014Z,9.40
2018-05-25T10:36:16.778Z,10.50
2018-05-25T10:37:16.782Z,10.60
2018-05-25T10:38:16.815Z,15.30
2018-05-25T10:39:38.291Z,8.50
2018-05-25T10:40:39.140Z,8.40
2018-05-25T10:41:39.200Z,11.00
2018-05-25T10:42:39.915Z,11.70
2018-05-25T10:44:00.780Z,9.60
2018-05-25T10:45:23.409Z,10.30
2018-05-25T10:46:24.203Z,7.50
2018-05-25T10:47:24.146Z,9.80
2018-05-25T10:48:23.635Z,8.20
2018-05-25T10:49:24.404Z,8.10
2018-05-25T10:50:24.242Z,9.10
2018-05-25T10:51:23.999Z,13.80
2018-05-25T10:52:23.670Z,9.40
2018-05-25T10:53:24.487Z,10.10
2018-05-25T10:54:24.513Z,11.90
2018-05-25T10:55:24.414Z,12.60
2018-05-25T10:56:24.378Z,10.60
2018-05-25T10:57:24.525Z,9.50
2018-05-25T10:58:24.414Z,12.00
2018-05-25T10:59:24.501Z,11.80
2018-05-25T11:00:24.547Z,13.40
2018-05-25T11:01:24.554Z,12.90
2018-05-25T11:02:24.420Z,7.60
2018-05-25T11:03:24.862Z,8.50
2018-05-25T11:04:23.662Z,9.20
2018-05-25T11:05:23.414Z,8.70
2018-05-25T11:06:24.210Z,9.10
2018-05-25T11:08:29.679Z,9.10
2018-05-25T11:09:30.345Z,10.40
2018-05-25T11:10:30.378Z,9.80
2018-05-25T11:11:30.386Z,11.80
2018-05-25T11:12:30.290Z,8.80
2018-05-25T11:13:30.570Z,11.20
2018-05-25T11:14:31.197Z,8.10
2018-05-25T11:15:30.789Z,8.80
2018-05-25T11:16:52.819Z,7.40
2018-05-25T11:17:53.728Z,8.70
2018-05-25T11:18:53.306Z,9.10
2018-05-25T11:19:54.398Z,9.70
2018-05-25T11:20:53.379Z,9.80
2018-05-25T11:21:53.235Z,12.10
2018-05-25T11:23:16.919Z,8.80
2018-05-25T11:24:17.471Z,7.00
2018-05-25T11:25:17.426Z,7.30
2018-05-25T11:26:39.193Z,7.00
2018-05-25T11:28:03.704Z,6.60
2018-05-25T11:29:03.849Z,6.20
2018-05-25T11:30:02.925Z,5.90
2018-05-25T11:31:02.907Z,6.50
2018-05-25T11:32:03.087Z,5.70
2018-05-25T11:33:02.850Z,6.40
2018-05-25T11:34:26.793Z,6.30
2018-05-25T11:35:27.853Z,8.70
2018-05-25T11:36:27.657Z,6.60
2018-05-25T11:37:51.490Z,7.60
2018-05-25T11:38:52.067Z,5.70
2018-05-25T11:39:51.886Z,5.20
2018-05-25T11:40:52.158Z,11.00
2018-05-25T11:42:13.625Z,6.50
2018-05-25T11:43:13.697Z,7.10
2018-05-25T11:44:35.525Z,10.00
2018-05-25T11:46:00.386Z,8.80
2018-05-25T11:47:01.198Z,5.40
2018-05-25T11:48:00.929Z,6.00
2018-05-25T11:49:22.481Z,5.90
2018-05-25T11:50:23.145Z,5.90
2018-05-25T11:51:22.800Z,7.20
2018-05-25T11:52:22.644Z,7.80
2018-05-25T11:53:23.203Z,5.80
2018-05-25T11:54:23.257Z,8.00
2018-05-25T11:55:22.879Z,6.90
2018-05-25T11:56:44.033Z,6.30
2018-05-25T11:57:44.927Z,6.10
2018-05-25T11:58:44.595Z,5.80
2018-05-25T11:59:44.381Z,8.70
2018-05-25T12:00:44.437Z,9.20
2018-05-25T12:01:45.051Z,6.80
2018-05-25T12:02:45.276Z,7.00
2018-05-25T12:03:45.437Z,8.80
2018-05-25T12:04:44.494Z,0.00
2018-05-25T12:05:44.571Z,10.40
2018-05-25T12:06:44.546Z,7.10
2018-05-25T12:08:06.291Z,7.00
2018-05-25T12:09:06.535Z,8.50
2018-05-25T12:10:06.600Z,8.60
2018-05-25T12:11:06.488Z,6.40
2018-05-25T12:12:06.557Z,9.50
2018-05-25T12:13:07.265Z,6.40
2018-05-25T12:14:06.987Z,6.90
2018-05-25T12:15:07.353Z,8.10
2018-05-25T12:16:50.481Z,9.90
2018-05-25T12:17:52.071Z,8.90
2018-05-25T12:18:51.353Z,8.70
2018-05-25T12:19:50.883Z,11.70
2018-05-25T12:20:50.919Z,10.70
2018-05-25T12:21:51.469Z,6.60
2018-05-25T12:22:52.091Z,12.80
2018-05-25T12:23:51.011Z,7.70
2018-05-25T12:24:50.946Z,6.30
2018-05-25T12:25:51.191Z,12.00
2018-05-25T12:26:51.934Z,9.20
2018-05-25T12:27:51.138Z,12.30
2018-05-25T12:28:50.989Z,9.20
2018-05-25T12:29:50.973Z,10.80
2018-05-25T12:30:50.708Z,8.10
2018-05-25T12:32:13.318Z,8.40
2018-05-25T12:33:13.533Z,6.70
2018-05-25T12:34:13.229Z,7.50
2018-05-25T12:35:13.454Z,9.10
2018-05-25T12:36:13.345Z,7.80
2018-05-25T12:37:35.946Z,6.00
2018-05-25T12:38:35.969Z,7.70
2018-05-25T12:39:36.888Z,5.90
2018-05-25T12:40:35.926Z,6.40
2018-05-25T12:41:35.904Z,8.00
2018-05-25T12:42:57.247Z,6.90
2018-05-25T12:43:58.309Z,9.80
2018-05-25T12:46:24.032Z,9.00
2018-05-25T12:47:25.713Z,7.20
2018-05-25T12:48:24.542Z,8.10
2018-05-25T12:49:46.232Z,11.80
2018-05-25T12:51:10.289Z,7.30
2018-05-25T12:52:09.944Z,7.60
2018-05-25T12:53:09.691Z,7.30
2018-05-25T12:54:09.811Z,9.50
2018-05-25T12:55:09.648Z,7.30
2018-05-25T12:56:10.203Z,10.10
2018-05-25T12:57:34.819Z,8.30
2018-05-25T12:58:34.753Z,7.80
2018-05-25T12:59:56.890Z,9.60
2018-05-25T13:01:19.090Z,7.70
2018-05-25T13:02:19.740Z,7.00
2018-05-25T13:03:20.386Z,7.80
2018-05-25T13:04:20.149Z,8.10
2018-05-25T13:05:21.096Z,6.70
2018-05-25T13:06:19.842Z,7.10
2018-05-25T13:07:19.929Z,6.00
2018-05-25T13:08:19.834Z,8.30
2018-05-25T13:09:19.707Z,7.10
2018-05-25T13:10:19.618Z,5.60
2018-05-25T13:11:40.643Z,7.00
2018-05-25T13:12:42.096Z,6.00
2018-05-25T13:13:41.618Z,6.30
2018-05-25T13:14:41.954Z,10.80
2018-05-25T13:15:41.231Z,7.00
2018-05-25T13:17:04.030Z,7.10
2018-05-25T13:18:04.260Z,6.00
2018-05-25T13:19:03.945Z,12.40
2018-05-25T13:20:04.189Z,8.70
2018-05-25T13:21:03.882Z,0.00
2018-05-25T13:22:03.688Z,8.30
2018-05-25T13:23:03.852Z,8.60
2018-05-25T13:24:50.835Z,7.30
2018-05-25T13:26:11.032Z,8.10
2018-05-25T13:27:32.257Z,8.40
2018-05-25T13:28:34.720Z,11.20
2018-05-25T13:29:54.572Z,8.70
2018-05-25T13:30:55.502Z,7.30
2018-05-25T13:31:57.039Z,9.20
2018-05-25T13:32:54.995Z,6.50
2018-05-25T13:33:54.999Z,6.60
2018-05-25T13:34:55.272Z,6.80
2018-05-25T13:35:55.533Z,8.30
2018-05-25T13:36:55.456Z,9.80
2018-05-25T13:37:55.216Z,11.50
2018-05-25T13:38:55.054Z,9.70
2018-05-25T13:39:55.173Z,12.40
2018-05-25T13:40:55.209Z,7.70
2018-05-25T13:41:55.447Z,6.70
2018-05-25T13:43:17.672Z,6.30
2018-05-25T13:44:17.597Z,9.00
2018-05-25T13:45:46.189Z,8.50
2018-05-25T13:46:41.498Z,8.00
2018-05-25T13:47:42.186Z,9.80
2018-05-25T13:48:40.014Z,6.20
2018-05-25T13:49:39.725Z,7.00
2018-05-25T13:50:40.651Z,10.00
2018-05-25T13:51:40.574Z,9.60